Elvira, Argentina
Current Conditions -  °F | °C
As of 10:00 AM on Saturday 25 Oct 2014 (Local Time) from SAEZ Reporting Station
Clear Clear  
Wind Chill: 27°   Ceiling: Unl
Heat Index: 28°   Visibility: 6mi
Dew Point: 18°   Wind: 5mph
Humidity: 58%   Direction: 320°NW
Pressure: 29.97"   Gusts: NA
Location:  35.2°S, 59.35°W
Report Text: SAEZ 251300Z 32004KT 290V020 CAVOK 27/18 Q1015
Loading
Personal Weather Stations






























Interactive Weather Map
Tropical Storm Tracking
New forecast layout! Learn more

10-Day Weather Forecast

Advertisements
Track Severe Weather on mobile